createdAt,value
2023-01-23T00:00:59.139Z,10.73
2023-01-23T00:03:26.299Z,8.40
2023-01-23T00:06:03.501Z,9.23
2023-01-23T00:08:31.109Z,10.00
2023-01-23T00:10:58.775Z,8.70
2023-01-23T00:13:26.074Z,9.23
2023-01-23T00:15:53.255Z,8.93
2023-01-23T00:18:20.445Z,8.90
2023-01-23T00:20:47.614Z,9.67
2023-01-23T00:23:14.830Z,10.60
2023-01-23T00:25:42.100Z,9.17
2023-01-23T00:28:09.239Z,9.80
2023-01-23T00:30:36.389Z,10.13
2023-01-23T00:33:03.532Z,11.30
2023-01-23T00:35:31.137Z,10.37
2023-01-23T00:37:58.335Z,10.77
2023-01-23T00:40:25.463Z,12.77
2023-01-23T00:42:52.692Z,9.57
2023-01-23T00:45:19.906Z,10.23
2023-01-23T00:47:47.048Z,10.20
2023-01-23T00:50:15.051Z,10.57
2023-01-23T00:52:42.180Z,9.57
2023-01-23T00:55:09.628Z,9.83
2023-01-23T00:57:36.763Z,9.60
2023-01-23T01:00:04.881Z,9.87
2023-01-23T01:02:32.062Z,9.93
2023-01-23T01:04:59.272Z,10.13
2023-01-23T01:07:26.442Z,11.30
2023-01-23T01:09:53.561Z,10.80
2023-01-23T01:12:20.782Z,10.03
2023-01-23T01:14:47.947Z,9.47
2023-01-23T01:17:15.080Z,10.43
2023-01-23T01:19:42.215Z,11.23
2023-01-23T01:22:09.335Z,11.30
2023-01-23T01:24:36.578Z,11.03
2023-01-23T01:27:03.764Z,9.97
2023-01-23T01:29:30.904Z,9.57
2023-01-23T01:31:58.072Z,9.60
2023-01-23T01:34:25.278Z,9.43
2023-01-23T01:36:52.441Z,10.93
2023-01-23T01:39:19.729Z,9.20
2023-01-23T01:41:46.960Z,10.20
2023-01-23T01:44:21.086Z,10.17
2023-01-23T01:46:49.196Z,10.37
2023-01-23T01:49:19.291Z,8.27
2023-01-23T01:51:50.439Z,8.30
2023-01-23T01:54:22.249Z,9.27
2023-01-23T01:57:07.491Z,9.00
2023-01-23T01:59:40.903Z,8.23
2023-01-23T02:02:16.804Z,8.33
2023-01-23T02:04:46.091Z,9.37
2023-01-23T02:07:19.978Z,8.47
2023-01-23T02:09:48.235Z,8.90
2023-01-23T02:12:15.427Z,8.70
2023-01-23T02:14:42.876Z,8.17
2023-01-23T02:17:10.675Z,9.33
2023-01-23T02:19:48.384Z,8.40
2023-01-23T02:22:15.511Z,9.07
2023-01-23T02:24:47.466Z,8.23
2023-01-23T02:27:14.632Z,9.20
2023-01-23T02:29:48.321Z,8.90
2023-01-23T02:32:15.535Z,8.43
2023-01-23T02:34:43.018Z,8.37
2023-01-23T02:37:10.383Z,9.10
2023-01-23T02:39:39.561Z,7.43
2023-01-23T02:42:07.398Z,7.53
2023-01-23T02:44:34.546Z,9.43
2023-01-23T02:47:03.857Z,8.83
2023-01-23T02:49:31.032Z,8.87
2023-01-23T02:51:58.154Z,8.70
2023-01-23T02:54:25.587Z,7.70
2023-01-23T02:56:52.828Z,8.17
2023-01-23T02:59:38.463Z,7.23
2023-01-23T03:02:06.239Z,8.03
2023-01-23T03:04:33.555Z,8.20
2023-01-23T03:07:00.830Z,7.50
2023-01-23T03:09:28.300Z,8.53
2023-01-23T03:11:55.493Z,7.77
2023-01-23T03:14:24.065Z,7.27
2023-01-23T03:16:53.738Z,7.77
2023-01-23T03:19:23.229Z,7.13
2023-01-23T03:21:51.173Z,7.90
2023-01-23T03:24:18.644Z,8.13
2023-01-23T03:26:46.658Z,9.17
2023-01-23T03:29:36.953Z,9.53
2023-01-23T03:32:04.126Z,8.50
2023-01-23T03:34:31.598Z,8.50
2023-01-23T03:36:59.518Z,8.53
2023-01-23T03:39:45.581Z,8.47
2023-01-23T03:42:12.716Z,8.37
2023-01-23T03:44:39.897Z,7.70
2023-01-23T03:47:07.137Z,9.00
2023-01-23T03:49:34.295Z,7.43
2023-01-23T03:52:01.575Z,9.00
2023-01-23T03:54:28.869Z,7.40
2023-01-23T03:56:56.047Z,7.00
2023-01-23T03:59:23.213Z,6.60
2023-01-23T04:01:50.354Z,7.37
2023-01-23T04:04:17.484Z,7.43
2023-01-23T04:06:44.610Z,7.80
2023-01-23T04:09:12.933Z,7.13
2023-01-23T04:11:40.143Z,7.80
2023-01-23T04:14:07.280Z,7.13
2023-01-23T04:16:34.543Z,7.73
2023-01-23T04:19:01.766Z,6.70
2023-01-23T04:21:28.944Z,7.57
2023-01-23T04:23:56.076Z,7.60
2023-01-23T04:26:23.393Z,6.83
2023-01-23T04:28:50.541Z,8.07
2023-01-23T04:31:17.753Z,7.50
2023-01-23T04:33:45.008Z,7.63
2023-01-23T04:36:12.520Z,7.30
2023-01-23T04:38:39.987Z,7.47
2023-01-23T04:41:07.127Z,7.30
2023-01-23T04:43:35.865Z,6.93
2023-01-23T04:46:03.031Z,7.53
2023-01-23T04:48:30.237Z,8.13
2023-01-23T04:50:57.401Z,7.43
2023-01-23T04:53:24.589Z,7.53
2023-01-23T04:55:51.697Z,7.57
2023-01-23T04:58:19.849Z,7.90
2023-01-23T05:00:47.571Z,10.13
2023-01-23T05:03:15.442Z,7.13
2023-01-23T05:05:44.208Z,7.77
2023-01-23T05:08:14.514Z,6.30
2023-01-23T05:10:41.702Z,6.87
2023-01-23T05:13:10.330Z,6.70
2023-01-23T05:15:37.491Z,7.13
2023-01-23T05:18:04.657Z,6.37
2023-01-23T05:20:31.770Z,6.90
2023-01-23T05:22:58.926Z,6.70
2023-01-23T05:25:27.271Z,6.93
2023-01-23T05:27:54.504Z,6.67
2023-01-23T05:30:23.530Z,6.97
2023-01-23T05:32:50.702Z,7.03
2023-01-23T05:35:17.889Z,7.47
2023-01-23T05:37:48.609Z,6.63
2023-01-23T05:40:15.846Z,6.60
2023-01-23T05:42:42.979Z,7.10
2023-01-23T05:45:10.339Z,6.17
2023-01-23T05:47:37.475Z,7.20
2023-01-23T05:50:05.240Z,7.60
2023-01-23T05:52:32.448Z,6.77
2023-01-23T05:54:59.565Z,6.90
2023-01-23T05:57:26.711Z,6.13
2023-01-23T05:59:53.895Z,6.70
2023-01-23T06:02:21.124Z,6.10
2023-01-23T06:04:49.048Z,6.70
2023-01-23T06:07:17.207Z,6.00
2023-01-23T06:09:44.363Z,6.47
2023-01-23T06:12:11.892Z,6.07
2023-01-23T06:14:39.129Z,6.13
2023-01-23T06:17:06.702Z,6.43
2023-01-23T06:19:33.923Z,5.70
2023-01-23T06:22:01.165Z,6.40
2023-01-23T06:24:28.299Z,6.43
2023-01-23T06:26:55.439Z,6.87
2023-01-23T06:29:22.628Z,6.27
2023-01-23T06:31:49.811Z,6.30
2023-01-23T06:34:17.068Z,6.03
2023-01-23T06:36:44.304Z,5.80
2023-01-23T06:39:13.906Z,6.60
2023-01-23T06:41:41.061Z,6.80
2023-01-23T06:44:08.306Z,6.63
2023-01-23T06:46:35.710Z,5.10
2023-01-23T06:49:05.214Z,5.13
2023-01-23T06:51:34.120Z,5.37
2023-01-23T06:54:01.343Z,5.37
2023-01-23T06:56:28.648Z,5.53
2023-01-23T06:58:55.863Z,6.27
2023-01-23T07:01:23.993Z,5.97
2023-01-23T07:03:51.286Z,6.90
2023-01-23T07:06:18.469Z,5.63
2023-01-23T07:08:45.658Z,5.60
2023-01-23T07:11:12.885Z,5.53
2023-01-23T07:13:40.017Z,6.83
2023-01-23T07:16:07.401Z,7.80
2023-01-23T07:18:34.693Z,5.80
2023-01-23T07:21:04.202Z,6.90
2023-01-23T07:23:31.368Z,9.63
2023-01-23T07:26:01.880Z,17.97
2023-01-23T07:28:29.086Z,8.67
2023-01-23T07:30:56.348Z,6.47
2023-01-23T07:33:23.578Z,6.60
2023-01-23T07:35:50.731Z,5.80
2023-01-23T07:38:17.936Z,6.13
2023-01-23T07:40:45.425Z,7.23
2023-01-23T07:43:12.647Z,5.73
2023-01-23T07:45:39.835Z,6.83
2023-01-23T07:48:07.032Z,6.60
2023-01-23T07:50:35.669Z,14.77
2023-01-23T07:53:03.708Z,5.27
2023-01-23T07:55:30.891Z,6.03
2023-01-23T07:57:58.213Z,5.47
2023-01-23T08:00:27.781Z,6.40
2023-01-23T08:02:57.140Z,7.30
2023-01-23T08:05:24.319Z,6.30
2023-01-23T08:08:00.723Z,5.97
2023-01-23T08:10:34.687Z,6.77
2023-01-23T08:13:01.829Z,6.97
2023-01-23T08:15:28.951Z,5.90
2023-01-23T08:17:56.172Z,7.83
2023-01-23T08:20:23.396Z,5.67
2023-01-23T08:22:50.588Z,4.00
2023-01-23T08:25:17.886Z,3.03
2023-01-23T08:27:45.008Z,4.77
2023-01-23T08:30:12.324Z,5.10
2023-01-23T08:32:39.465Z,5.70
2023-01-23T08:35:06.912Z,6.43
2023-01-23T08:37:34.482Z,6.17
2023-01-23T08:40:01.828Z,7.43
2023-01-23T08:42:29.016Z,6.27
2023-01-23T08:44:56.149Z,5.67
2023-01-23T08:47:23.816Z,5.67
2023-01-23T08:49:50.971Z,8.93
2023-01-23T08:52:18.172Z,16.37
2023-01-23T08:54:45.336Z,38.53
2023-01-23T08:57:12.489Z,24.80
2023-01-23T08:59:39.625Z,24.67
2023-01-23T09:02:06.981Z,16.27
2023-01-23T09:04:34.165Z,8.23
2023-01-23T09:07:01.279Z,8.20
2023-01-23T09:09:29.877Z,7.00
2023-01-23T09:11:57.007Z,4.77
2023-01-23T09:14:24.138Z,6.50
2023-01-23T09:16:51.364Z,7.70
2023-01-23T09:19:18.552Z,4.70
2023-01-23T09:21:45.664Z,5.20
2023-01-23T09:24:13.020Z,4.33
2023-01-23T09:26:40.316Z,4.10
2023-01-23T09:29:07.506Z,4.70
2023-01-23T09:31:34.671Z,5.03
2023-01-23T09:34:03.360Z,3.07
2023-01-23T09:36:42.074Z,4.23
2023-01-23T09:39:10.216Z,5.67
2023-01-23T09:41:39.283Z,5.07
2023-01-23T09:44:10.104Z,4.60
2023-01-23T09:46:37.227Z,4.33
2023-01-23T09:49:04.664Z,4.43
2023-01-23T09:51:31.835Z,4.03
2023-01-23T09:54:01.483Z,2.93
2023-01-23T09:56:30.640Z,4.83
2023-01-23T09:59:00.009Z,4.23
2023-01-23T10:01:29.432Z,4.50
2023-01-23T10:03:58.039Z,5.73
2023-01-23T10:06:27.321Z,4.67
2023-01-23T10:09:01.236Z,4.37
2023-01-23T10:11:34.724Z,4.20
2023-01-23T10:14:16.525Z,4.27
2023-01-23T10:16:50.941Z,5.60
2023-01-23T10:19:27.531Z,5.57
2023-01-23T10:22:03.122Z,5.40
2023-01-23T10:24:40.055Z,5.43
2023-01-23T10:27:21.511Z,4.57
2023-01-23T10:29:51.664Z,5.03
2023-01-23T10:32:24.483Z,6.40
2023-01-23T10:34:56.721Z,4.97
2023-01-23T10:37:43.953Z,4.63
2023-01-23T10:40:13.146Z,4.10
2023-01-23T10:42:40.496Z,4.10
2023-01-23T10:45:12.079Z,3.50
2023-01-23T10:47:51.973Z,5.10
2023-01-23T10:50:35.835Z,4.10
2023-01-23T10:53:09.592Z,4.00
2023-01-23T10:55:36.863Z,4.27
2023-01-23T10:58:04.296Z,4.37
2023-01-23T11:00:40.259Z,3.67
2023-01-23T11:03:22.719Z,3.77
2023-01-23T11:05:53.705Z,3.93
2023-01-23T11:08:37.755Z,4.00
2023-01-23T11:11:16.914Z,4.20
2023-01-23T11:13:45.791Z,4.43
2023-01-23T11:16:30.824Z,3.93
2023-01-23T11:19:05.421Z,6.50
2023-01-23T11:21:51.356Z,4.20
2023-01-23T11:24:27.803Z,4.30
2023-01-23T11:27:02.776Z,5.67
2023-01-23T11:29:30.911Z,4.70
2023-01-23T11:32:06.524Z,5.80
2023-01-23T11:34:43.710Z,5.00
2023-01-23T11:37:32.785Z,7.30
2023-01-23T11:40:03.773Z,5.80
2023-01-23T11:42:30.939Z,9.40
2023-01-23T11:45:00.090Z,6.33
2023-01-23T11:47:30.272Z,4.30
2023-01-23T11:50:06.364Z,5.17
2023-01-23T11:52:36.859Z,3.83
2023-01-23T11:55:23.327Z,3.97
2023-01-23T11:57:50.605Z,6.20
2023-01-23T12:00:30.341Z,3.17
2023-01-23T12:03:12.755Z,5.60
2023-01-23T12:05:46.791Z,4.33
2023-01-23T12:08:30.892Z,4.73
2023-01-23T12:11:16.433Z,4.80
2023-01-23T12:13:49.355Z,3.53
2023-01-23T12:16:31.903Z,4.13
2023-01-23T12:19:02.161Z,5.10
2023-01-23T12:21:34.717Z,4.50
2023-01-23T12:24:13.862Z,7.13
2023-01-23T12:26:56.447Z,5.60
2023-01-23T12:29:23.557Z,4.30
2023-01-23T12:32:09.601Z,4.53
2023-01-23T12:34:39.985Z,5.43
2023-01-23T12:37:29.965Z,5.13
2023-01-23T12:40:07.063Z,6.90
2023-01-23T12:42:41.725Z,5.30
2023-01-23T12:45:11.920Z,6.07
2023-01-23T12:47:41.849Z,5.77
2023-01-23T12:50:12.129Z,5.20
2023-01-23T12:52:44.279Z,6.77
2023-01-23T12:55:18.653Z,6.87
2023-01-23T12:58:00.288Z,5.50
2023-01-23T13:00:35.414Z,6.07
2023-01-23T13:03:19.877Z,5.53
2023-01-23T13:05:55.015Z,5.20
2023-01-23T13:08:25.297Z,4.43
2023-01-23T13:11:40.542Z,4.57
2023-01-23T13:15:03.643Z,5.83
2023-01-23T13:17:31.014Z,4.80
2023-01-23T13:20:37.123Z,6.20
2023-01-23T13:23:24.045Z,6.30
2023-01-23T13:25:51.937Z,5.37
2023-01-23T13:28:57.558Z,7.27
2023-01-23T13:31:37.060Z,6.33
2023-01-23T13:34:18.326Z,5.97
2023-01-23T13:36:49.451Z,5.43
2023-01-23T13:39:22.564Z,4.60
2023-01-23T13:42:08.623Z,4.90
2023-01-23T13:44:41.622Z,5.27
2023-01-23T14:21:41.231Z,4.77
2023-01-23T14:24:25.109Z,6.00
2023-01-23T14:26:53.252Z,5.30
2023-01-23T14:29:24.269Z,5.03
2023-01-23T14:31:51.888Z,5.80
2023-01-23T14:34:20.256Z,6.97
2023-01-23T14:36:55.438Z,5.67
2023-01-23T14:39:23.626Z,5.83
2023-01-23T14:41:51.623Z,5.13
2023-01-23T14:44:21.405Z,5.10
2023-01-23T14:46:51.618Z,6.73
2023-01-23T14:49:23.111Z,5.20
2023-01-23T14:51:57.070Z,5.47
2023-01-23T14:54:26.409Z,6.43
2023-01-23T14:56:57.320Z,5.43
2023-01-23T14:59:27.131Z,8.77
2023-01-23T15:01:58.200Z,5.03
2023-01-23T15:04:28.231Z,5.47
2023-01-23T15:07:01.785Z,5.03
2023-01-23T15:09:41.258Z,5.97
2023-01-23T15:12:12.721Z,5.80
2023-01-23T15:14:41.606Z,6.70
2023-01-23T15:17:14.529Z,5.40
2023-01-23T15:19:42.147Z,5.87
2023-01-23T15:22:29.561Z,7.27
2023-01-23T15:24:57.199Z,5.60
2023-01-23T15:27:24.726Z,5.83
2023-01-23T15:29:52.169Z,5.80
2023-01-23T15:32:25.136Z,6.67
2023-01-23T15:34:57.663Z,6.70
2023-01-23T15:37:28.612Z,6.77
2023-01-23T15:39:57.457Z,7.03
2023-01-23T15:42:30.533Z,6.23
2023-01-23T15:45:01.170Z,8.73
2023-01-23T15:47:31.364Z,9.63
2023-01-23T15:50:02.913Z,7.73
2023-01-23T15:52:31.527Z,7.47
2023-01-23T15:55:00.311Z,7.07
2023-01-23T15:57:27.654Z,8.60
2023-01-23T15:59:54.867Z,8.50
2023-01-23T16:02:33.137Z,8.00
2023-01-23T16:05:01.822Z,7.60
2023-01-23T16:07:34.225Z,7.83
2023-01-23T16:10:01.908Z,6.47
2023-01-23T16:12:30.286Z,8.30
2023-01-23T16:14:57.700Z,6.80
2023-01-23T16:17:24.969Z,6.67
2023-01-23T16:19:52.684Z,8.30
2023-01-23T16:22:29.402Z,7.83
2023-01-23T16:24:57.435Z,12.33
2023-01-23T16:27:27.807Z,7.00
2023-01-23T16:29:56.038Z,7.63
2023-01-23T16:32:23.401Z,7.43
2023-01-23T16:34:50.633Z,6.67
2023-01-23T16:37:18.912Z,8.10
2023-01-23T16:39:46.912Z,7.20
2023-01-23T16:42:21.971Z,7.13
2023-01-23T16:44:49.555Z,6.93
2023-01-23T16:47:16.766Z,7.50
2023-01-23T16:49:52.238Z,7.00
2023-01-23T16:52:20.663Z,6.80
2023-01-23T16:54:47.929Z,7.47
2023-01-23T16:57:18.860Z,7.00
2023-01-23T16:59:46.672Z,6.63
2023-01-23T17:02:22.017Z,8.13
2023-01-23T17:04:49.580Z,6.57
2023-01-23T17:07:17.787Z,6.80
2023-01-23T17:09:45.886Z,7.43
2023-01-23T17:12:15.579Z,7.83
2023-01-23T17:14:44.037Z,6.40
2023-01-23T17:17:13.794Z,8.90
2023-01-23T17:19:41.918Z,7.27
2023-01-23T17:22:15.907Z,7.17
2023-01-23T17:24:43.164Z,7.67
2023-01-23T17:27:10.307Z,7.00
2023-01-23T17:29:37.427Z,7.33
2023-01-23T17:32:04.699Z,6.73
2023-01-23T17:34:48.655Z,6.47
2023-01-23T17:37:20.278Z,6.17
2023-01-23T17:39:47.406Z,5.83
2023-01-23T17:42:15.051Z,6.70
2023-01-23T17:44:42.209Z,7.30
2023-01-23T17:47:13.554Z,6.37
2023-01-23T17:49:41.120Z,6.40
2023-01-23T17:52:11.902Z,5.77
2023-01-23T17:54:39.547Z,6.17
2023-01-23T17:57:06.682Z,7.20
2023-01-23T17:59:33.900Z,6.53
2023-01-23T18:02:01.111Z,6.50
2023-01-23T18:04:28.407Z,6.20
2023-01-23T18:06:55.571Z,6.63
2023-01-23T18:09:22.764Z,5.57
2023-01-23T18:11:54.294Z,5.27
2023-01-23T18:14:39.960Z,5.77
2023-01-23T18:17:20.579Z,5.97
2023-01-23T18:19:47.888Z,5.67
2023-01-23T18:22:15.246Z,5.20
2023-01-23T18:24:42.518Z,5.90
2023-01-23T18:27:20.579Z,5.03
2023-01-23T18:30:06.524Z,5.80
2023-01-23T18:32:52.460Z,7.03
2023-01-23T18:35:19.909Z,6.73
2023-01-23T18:37:58.628Z,6.83
2023-01-23T18:40:28.950Z,5.53
2023-01-23T18:43:15.473Z,5.50
2023-01-23T18:45:42.719Z,6.03
2023-01-23T18:48:25.352Z,5.23
2023-01-23T18:51:16.235Z,5.40
2023-01-23T18:53:55.538Z,6.07
2023-01-23T18:56:38.485Z,5.23
2023-01-23T18:59:11.820Z,4.67
2023-01-23T19:01:54.194Z,5.30
2023-01-23T19:04:38.454Z,5.90
2023-01-23T19:07:14.896Z,4.93
2023-01-23T19:09:46.488Z,4.93
2023-01-23T19:12:25.703Z,4.77
2023-01-23T19:14:59.068Z,6.00
2023-01-23T19:17:32.715Z,5.73
2023-01-23T19:20:14.815Z,5.10
2023-01-23T19:23:05.344Z,4.80
2023-01-23T19:25:32.600Z,4.67
2023-01-23T19:28:00.623Z,5.27
2023-01-23T19:30:28.010Z,6.33
2023-01-23T19:32:55.282Z,6.73
2023-01-23T19:35:22.836Z,5.13
2023-01-23T19:37:50.234Z,4.37
2023-01-23T19:40:17.646Z,5.00
2023-01-23T19:42:54.295Z,5.23
2023-01-23T19:45:25.869Z,5.30
2023-01-23T19:47:54.263Z,4.57
2023-01-23T19:50:22.260Z,5.27
2023-01-23T19:52:50.329Z,5.97
2023-01-23T19:55:21.110Z,4.63
2023-01-23T19:57:48.384Z,4.30
2023-01-23T20:00:16.411Z,4.60
2023-01-23T20:02:43.775Z,3.17
2023-01-23T20:05:11.889Z,6.57
2023-01-23T20:07:39.365Z,5.13
2023-01-23T20:10:06.814Z,4.40
2023-01-23T20:12:40.518Z,5.53
2023-01-23T20:15:07.944Z,6.27
2023-01-23T20:17:35.052Z,4.90
2023-01-23T20:20:02.287Z,4.87
2023-01-23T20:22:30.309Z,3.90
2023-01-23T20:24:57.449Z,5.03
2023-01-23T20:27:24.632Z,5.00
2023-01-23T20:29:52.222Z,4.60
2023-01-23T20:32:19.646Z,4.33
2023-01-23T20:34:46.957Z,4.77
2023-01-23T20:37:14.112Z,4.63
2023-01-23T20:39:41.271Z,9.90
2023-01-23T20:42:10.676Z,6.50
2023-01-23T20:44:38.359Z,4.17
2023-01-23T20:47:05.549Z,5.33
2023-01-23T20:49:32.757Z,6.23
2023-01-23T20:52:19.919Z,4.67
2023-01-23T20:54:47.596Z,6.37
2023-01-23T20:57:15.416Z,5.40
2023-01-23T20:59:42.547Z,5.60
2023-01-23T21:02:23.997Z,5.60
2023-01-23T21:04:51.510Z,5.37
2023-01-23T21:07:18.804Z,4.97
2023-01-23T21:09:46.120Z,4.43
2023-01-23T21:12:13.515Z,5.10
2023-01-23T21:14:40.709Z,4.10
2023-01-23T21:17:09.604Z,6.07
2023-01-23T21:19:38.941Z,5.57
2023-01-23T21:22:06.827Z,4.77
2023-01-23T21:24:34.768Z,3.87
2023-01-23T21:27:02.862Z,4.70
2023-01-23T21:29:30.318Z,4.67
2023-01-23T21:31:57.717Z,5.30
2023-01-23T21:34:25.733Z,5.37
2023-01-23T21:36:53.008Z,4.90
2023-01-23T21:39:20.705Z,6.17
2023-01-23T21:41:47.833Z,5.63
2023-01-23T21:44:15.020Z,4.20
2023-01-23T21:46:42.575Z,5.13
2023-01-23T21:49:09.898Z,5.03
2023-01-23T21:51:37.143Z,4.43
2023-01-23T21:54:04.412Z,4.57
2023-01-23T21:56:31.581Z,5.40
2023-01-23T21:58:58.975Z,4.83
2023-01-23T22:01:32.799Z,4.33
2023-01-23T22:04:01.274Z,4.97
2023-01-23T22:06:28.452Z,7.23
2023-01-23T22:08:56.651Z,6.10
2023-01-23T22:11:23.813Z,5.27
2023-01-23T22:13:50.965Z,4.90
2023-01-23T22:16:18.987Z,4.63
2023-01-23T22:18:46.147Z,5.23
2023-01-23T22:21:13.331Z,6.50
2023-01-23T22:23:40.771Z,5.47
2023-01-23T22:26:09.725Z,5.63
2023-01-23T22:28:37.028Z,3.93
2023-01-23T22:31:14.810Z,4.83
2023-01-23T22:33:43.506Z,5.97
2023-01-23T22:36:13.324Z,3.97
2023-01-23T22:38:40.484Z,4.53
2023-01-23T22:41:07.643Z,5.20
2023-01-23T22:43:35.055Z,5.97
2023-01-23T22:46:06.297Z,4.73
2023-01-23T22:48:34.686Z,4.67
2023-01-23T22:51:02.957Z,7.27
2023-01-23T22:53:30.440Z,6.73
2023-01-23T22:55:57.731Z,5.50
2023-01-23T22:58:25.510Z,4.00
2023-01-23T23:00:53.421Z,5.17
2023-01-23T23:03:21.562Z,4.53
2023-01-23T23:05:56.552Z,6.10
2023-01-23T23:08:23.895Z,5.47
2023-01-23T23:11:00.295Z,4.27
2023-01-23T23:13:27.549Z,5.80
2023-01-23T23:15:54.711Z,5.60
2023-01-23T23:18:22.073Z,6.00
2023-01-23T23:20:49.317Z,5.20
2023-01-23T23:23:16.470Z,5.60
2023-01-23T23:25:43.604Z,5.20
2023-01-23T23:28:10.824Z,5.23
2023-01-23T23:30:37.967Z,5.00
2023-01-23T23:33:05.155Z,5.23
2023-01-23T23:35:32.314Z,5.17
2023-01-23T23:37:59.444Z,6.87
2023-01-23T23:40:26.598Z,8.13
2023-01-23T23:42:53.722Z,6.83
2023-01-23T23:45:21.109Z,5.60
2023-01-23T23:47:48.519Z,5.47
2023-01-23T23:50:15.995Z,7.00
2023-01-23T23:52:43.206Z,6.77
2023-01-23T23:55:10.963Z,6.00
2023-01-23T23:57:38.157Z,5.70
